createdAt,value
2019-03-21T15:02:45.530Z,9.13
2019-03-21T15:05:16.862Z,6.37
2019-03-21T15:07:48.240Z,7.45
2019-03-21T15:10:18.738Z,9.05
2019-03-21T15:12:48.959Z,5.75
2019-03-21T15:15:19.685Z,6.60
2019-03-21T15:17:50.320Z,8.65
2019-03-21T15:20:21.326Z,5.03
2019-03-21T15:22:52.310Z,6.20
2019-03-21T15:25:23.357Z,6.33
2019-03-21T15:27:54.130Z,7.65
2019-03-21T15:30:24.715Z,7.40
2019-03-21T15:32:55.295Z,6.78
2019-03-21T15:35:26.713Z,6.12
2019-03-21T15:37:57.653Z,5.80
2019-03-21T15:40:28.622Z,8.10
2019-03-21T15:42:58.895Z,9.08
2019-03-21T15:45:29.946Z,6.25
2019-03-21T15:48:00.640Z,6.17
2019-03-21T15:50:37.752Z,6.97
2019-03-21T15:53:07.694Z,6.92
2019-03-21T15:55:38.524Z,9.00
2019-03-21T15:58:09.522Z,7.17
2019-03-21T16:00:41.504Z,6.75
2019-03-21T16:03:12.424Z,6.25
2019-03-21T16:05:43.594Z,10.13
2019-03-21T16:08:14.220Z,10.30
2019-03-21T16:10:45.582Z,8.50
2019-03-21T16:13:15.812Z,8.20
2019-03-21T16:15:46.423Z,8.60
2019-03-21T16:18:17.260Z,7.72
2019-03-21T16:20:48.533Z,8.10
2019-03-21T16:23:19.240Z,7.40
2019-03-21T16:25:50.391Z,11.38
2019-03-21T16:28:20.450Z,10.98
2019-03-21T16:30:51.137Z,10.18
2019-03-21T16:33:21.964Z,10.93
2019-03-21T16:35:52.219Z,10.40
2019-03-21T16:38:23.128Z,10.80
2019-03-21T16:40:54.060Z,9.03
2019-03-21T16:43:25.104Z,11.15
2019-03-21T16:45:56.262Z,7.20
2019-03-21T16:48:27.482Z,11.33
2019-03-21T16:50:58.393Z,7.85
2019-03-21T16:53:29.721Z,8.50
2019-03-21T16:55:59.985Z,10.23
2019-03-21T16:58:30.973Z,9.50
2019-03-21T17:01:02.393Z,8.33
2019-03-21T17:03:33.132Z,7.72
2019-03-21T17:06:03.352Z,11.15
2019-03-21T17:08:33.531Z,8.58
2019-03-21T17:11:04.222Z,10.32
2019-03-21T17:13:35.224Z,8.78
2019-03-21T17:16:05.904Z,9.63
2019-03-21T17:18:36.924Z,20.80
2019-03-21T17:21:09.566Z,15.88
2019-03-21T17:23:40.845Z,10.20
2019-03-21T17:26:10.970Z,12.20
2019-03-21T17:28:42.218Z,14.10
2019-03-21T17:31:12.535Z,17.35
2019-03-21T17:33:43.353Z,18.85
2019-03-21T17:36:14.018Z,18.07
2019-03-21T17:38:45.008Z,14.47
2019-03-21T17:41:16.416Z,16.27
2019-03-21T17:43:47.051Z,11.88
2019-03-21T17:46:17.250Z,12.47
2019-03-21T17:48:48.580Z,18.25
2019-03-21T17:51:19.544Z,14.10
2019-03-21T17:53:49.818Z,14.87
2019-03-21T17:56:20.401Z,11.73
2019-03-21T17:58:50.940Z,10.03
2019-03-21T18:01:21.864Z,14.10
2019-03-21T18:03:52.203Z,12.80
2019-03-21T18:06:23.211Z,13.35
2019-03-21T18:08:54.095Z,14.85
2019-03-21T18:11:25.540Z,14.80
2019-03-21T18:13:56.646Z,16.30
2019-03-21T18:16:26.882Z,18.07
2019-03-21T18:18:57.404Z,16.30
2019-03-21T18:21:28.027Z,12.43
2019-03-21T18:23:58.923Z,14.63
2019-03-21T18:26:30.433Z,14.13
2019-03-21T18:29:01.562Z,11.63
2019-03-21T18:31:32.207Z,11.97
2019-03-21T18:34:03.445Z,10.63
2019-03-21T18:36:33.682Z,10.13
2019-03-21T18:39:05.959Z,10.00
2019-03-21T18:41:36.915Z,9.63
2019-03-21T18:44:07.657Z,10.32
2019-03-21T18:46:38.654Z,10.43
2019-03-21T18:49:09.664Z,13.83
2019-03-21T18:51:40.350Z,11.78
2019-03-21T18:54:11.674Z,9.60
2019-03-21T18:56:42.692Z,9.28
2019-03-21T18:59:14.050Z,8.80
2019-03-21T19:01:44.586Z,14.05
2019-03-21T19:04:15.875Z,8.18
2019-03-21T19:06:47.217Z,12.82
2019-03-21T19:09:17.766Z,10.48
2019-03-21T19:11:48.891Z,11.45
2019-03-21T19:14:19.168Z,11.22
2019-03-21T19:16:49.395Z,11.28
2019-03-21T19:19:20.351Z,8.08
2019-03-21T19:21:51.689Z,12.45
2019-03-21T19:24:22.612Z,10.28
2019-03-21T19:26:53.198Z,10.08
2019-03-21T19:29:24.446Z,10.53
2019-03-21T19:31:55.823Z,12.23
2019-03-21T19:34:26.066Z,11.03
2019-03-21T19:36:56.997Z,13.78
2019-03-21T19:39:28.324Z,13.80
2019-03-21T19:41:59.410Z,13.08
2019-03-21T19:44:30.948Z,12.90
2019-03-21T19:47:01.681Z,10.28
2019-03-21T19:49:32.717Z,12.37
2019-03-21T19:52:05.503Z,10.78
2019-03-21T19:54:36.154Z,12.30
2019-03-21T19:57:07.143Z,12.30
2019-03-21T19:59:40.538Z,10.08
2019-03-21T20:02:10.314Z,12.75
2019-03-21T20:04:41.337Z,14.35
2019-03-21T20:07:12.378Z,11.03
2019-03-21T20:09:42.703Z,11.57
2019-03-21T20:12:13.309Z,11.50
2019-03-21T20:14:45.425Z,13.15
2019-03-21T20:17:16.372Z,11.73
2019-03-21T20:19:47.805Z,12.10
2019-03-21T20:22:17.673Z,15.75
2019-03-21T20:24:48.442Z,13.98
2019-03-21T20:27:19.346Z,11.95
2019-03-21T20:29:50.764Z,14.65
2019-03-21T20:32:21.176Z,22.20
2019-03-21T20:34:51.909Z,42.13
2019-03-21T20:37:22.926Z,72.95
2019-03-21T20:39:54.176Z,27.60
2019-03-21T20:42:24.898Z,12.68
2019-03-21T20:45:03.624Z,13.62
2019-03-21T20:47:35.145Z,11.12
2019-03-21T20:50:07.427Z,12.93
2019-03-21T20:52:38.622Z,17.32
2019-03-21T20:55:09.747Z,19.45
2019-03-21T20:57:40.335Z,20.88
